Time;durP1;ratioP1;P1;durP2;ratioP2;P2;SDS_P1;SDS_P2;PMS_P1;PMS_P2;Temp;Humidity;BMP_temperature;BMP_pressure;BME280_temperature;BME280_humidity;BME280_pressure;Samples;Min_cycle;Max_cycle;Signal;HPM_P1;HPM_P2
2022/07/26 00:01:32;;;;;;;3.75;0.65;;;;;;;12.93;77.97;101041.91;5050385;28;20033;-82
2022/07/26 00:03:59;;;;;;;4.93;0.77;;;;;;;12.88;78.21;101039.69;5053882;28;20493;-83
2022/07/26 00:06:25;;;;;;;5.43;0.80;;;;;;;12.89;77.95;101036.91;5050181;28;20029;-83
2022/07/26 00:08:51;;;;;;;6.10;1.13;;;;;;;12.86;78.64;101036.34;5051409;28;20354;-83
2022/07/26 00:11:17;;;;;;;2.85;0.70;;;;;;;12.89;78.44;101044.84;5081163;28;20439;-83
2022/07/26 00:13:43;;;;;;;6.70;1.58;;;;;;;12.88;78.60;101031.72;5033191;28;20032;-83
2022/07/26 00:16:10;;;;;;;4.85;0.60;;;;;;;12.92;78.49;101041.06;5040054;28;20032;-83
2022/07/26 00:18:36;;;;;;;4.93;0.95;;;;;;;12.91;78.77;101044.72;5053309;28;20385;-83
2022/07/26 00:21:02;;;;;;;3.65;0.60;;;;;;;12.89;78.74;101042.19;5047823;28;20076;-83
2022/07/26 00:23:28;;;;;;;4.28;0.63;;;;;;;12.88;78.80;101051.13;5046412;28;20431;-83
2022/07/26 00:25:53;;;;;;;11.98;1.15;;;;;;;12.88;79.25;101051.13;5081475;28;20033;-83
2022/07/26 00:28:19;;;;;;;6.72;0.85;;;;;;;12.87;79.06;101046.81;5060611;28;20032;-83
2022/07/26 00:30:45;;;;;;;4.50;0.85;;;;;;;12.89;79.28;101057.28;5061231;28;20041;-83
2022/07/26 00:33:11;;;;;;;8.75;1.08;;;;;;;12.90;79.09;101048.31;5062928;28;20040;-83
2022/07/26 00:35:37;;;;;;;4.60;0.80;;;;;;;12.88;79.07;101051.13;5079521;28;20187;-83
2022/07/26 00:38:03;;;;;;;3.95;0.52;;;;;;;12.88;79.54;101051.13;5036134;28;20036;-83
2022/07/26 00:40:29;;;;;;;1.63;0.45;;;;;;;12.83;79.71;101050.75;5054124;28;20423;-83
2022/07/26 00:42:55;;;;;;;3.17;0.60;;;;;;;12.83;79.84;101048.09;5052113;28;20393;-82
2022/07/26 00:45:21;;;;;;;8.45;0.98;;;;;;;12.79;79.83;101049.34;5055135;28;20037;-83
2022/07/26 00:47:46;;;;;;;7.03;0.85;;;;;;;12.76;80.40;101050.47;5046017;28;20053;-83
2022/07/26 00:50:15;;;;;;;3.60;0.80;;;;;;;12.77;80.39;101053.97;5050714;28;20034;-82
2022/07/26 00:52:42;;;;;;;8.15;0.93;;;;;;;12.77;79.91;101057.44;5052037;28;20033;-82
2022/07/26 00:55:09;;;;;;;4.25;0.75;;;;;;;12.82;79.63;101053.53;5054868;28;20489;-83
2022/07/26 00:57:35;;;;;;;5.28;0.80;;;;;;;12.81;80.08;101052.69;5058656;28;20036;-82
2022/07/26 01:00:06;;;;;;;2.08;0.63;;;;;;;12.82;79.94;101056.19;5050530;28;20048;-83
2022/07/26 01:02:32;;;;;;;5.55;1.08;;;;;;;12.77;79.98;101053.97;5053379;28;20044;-83
2022/07/26 01:04:58;;;;;;;4.78;0.73;;;;;;;12.76;80.35;101053.13;5050842;28;20036;-83
2022/07/26 01:07:24;;;;;;;5.60;0.90;;;;;;;12.74;80.48;101057.72;5051984;28;20032;-78
2022/07/26 01:09:50;;;;;;;3.70;0.82;;;;;;;12.74;80.65;101057.72;5045204;28;20122;-78
2022/07/26 01:12:17;;;;;;;5.00;1.00;;;;;;;12.73;80.54;101058.72;5053999;28;20033;-83
2022/07/26 01:14:44;;;;;;;4.93;1.27;;;;;;;12.75;80.76;101064.72;5041834;28;20441;-83
2022/07/26 01:17:11;;;;;;;6.55;0.90;;;;;;;12.73;80.68;101061.38;5049560;28;20033;-83
2022/07/26 01:19:37;;;;;;;10.02;1.42;;;;;;;12.74;80.74;101052.44;5042981;28;20024;-83
2022/07/26 01:22:03;;;;;;;6.47;0.80;;;;;;;12.75;80.89;101050.63;5047300;28;20044;-83
2022/07/26 01:24:29;;;;;;;12.57;0.70;;;;;;;12.73;80.89;101055.22;5046140;28;20132;-83
2022/07/26 01:26:55;;;;;;;8.15;0.80;;;;;;;12.72;80.88;101051.75;5055759;28;20037;-83
2022/07/26 01:29:25;;;;;;;7.03;0.80;;;;;;;12.72;81.00;101054.41;5051175;28;20118;-83
2022/07/26 01:31:51;;;;;;;5.32;1.23;;;;;;;12.77;80.67;101054.78;5054041;28;20123;-83
2022/07/26 01:34:17;;;;;;;4.25;1.25;;;;;;;12.86;80.46;101044.31;5041798;28;20486;-83
2022/07/26 01:36:43;;;;;;;6.93;0.82;;;;;;;12.84;80.38;101043.59;5052751;28;20473;-83
2022/07/26 01:39:09;;;;;;;7.97;0.70;;;;;;;12.77;80.56;101036.22;5051542;28;20033;-83
2022/07/26 01:41:35;;;;;;;4.55;1.00;;;;;;;12.79;81.02;101038.72;5050173;28;20048;-83
2022/07/26 01:44:01;;;;;;;2.97;0.75;;;;;;;12.73;80.65;101040.16;5048787;28;20389;-83
2022/07/26 01:46:27;;;;;;;6.10;0.88;;;;;;;12.72;80.93;101037.66;5045257;28;20504;-83
2022/07/26 01:48:53;;;;;;;6.72;0.90;;;;;;;12.69;80.72;101038.78;5048491;28;20033;-83
2022/07/26 01:51:19;;;;;;;6.20;0.60;;;;;;;12.73;81.03;101045.47;5065260;28;20048;-83
2022/07/26 01:53:45;;;;;;;4.88;0.80;;;;;;;12.71;80.79;101039.44;5045864;28;20033;-83
2022/07/26 01:56:12;;;;;;;2.40;0.73;;;;;;;12.71;80.87;101038.63;5043398;28;20104;-83
2022/07/26 01:58:38;;;;;;;5.05;0.60;;;;;;;12.64;81.22;101036.56;5047021;28;20439;-83
2022/07/26 02:01:04;;;;;;;8.38;0.60;;;;;;;12.61;81.42;101039.47;5048580;28;20033;-83
2022/07/26 02:03:30;;;;;;;2.65;0.70;;;;;;;12.57;81.15;101029.28;5048445;28;20120;-83
2022/07/26 02:05:55;;;;;;;1.92;0.63;;;;;;;12.54;81.68;101035.72;5049357;28;20063;-83
2022/07/26 02:08:21;;;;;;;5.20;0.80;;;;;;;12.54;81.34;101027.78;5048937;28;20029;-83
2022/07/26 02:11:08;;;;;;;6.95;0.70;;;;;;;12.55;81.14;101024.13;5044515;28;20029;-78
2022/07/26 02:13:39;;;;;;;2.85;0.40;;;;;;;12.57;81.40;101021.34;5049606;28;20041;-78
2022/07/26 02:16:08;;;;;;;7.32;1.00;;;;;;;12.56;81.28;101036.44;5047333;28;20044;-83
2022/07/26 02:18:36;;;;;;;7.15;0.80;;;;;;;12.54;81.34;101027.78;5049656;28;20037;-83
2022/07/26 02:21:04;;;;;;;3.58;0.55;;;;;;;12.56;81.51;101019.66;5045056;28;20054;-83
2022/07/26 02:23:31;;;;;;;3.42;0.68;;;;;;;12.55;81.33;101025.97;5027203;28;20499;-83
2022/07/26 02:25:57;;;;;;;7.70;1.08;;;;;;;12.56;81.40;101023.16;5053895;28;20029;-83
2022/07/26 02:28:22;;;;;;;3.15;0.95;;;;;;;12.56;81.00;101027.63;5050678;28;20127;-83
2022/07/26 02:30:49;;;;;;;4.25;0.60;;;;;;;12.52;81.14;101025.25;5051992;28;20068;-78
2022/07/26 02:33:16;;;;;;;4.53;0.60;;;;;;;12.52;81.50;101027.06;5053267;28;20037;-77
2022/07/26 02:35:43;;;;;;;4.65;1.15;;;;;;;12.45;81.77;101026.81;5066367;28;20062;-83
2022/07/26 02:38:11;;;;;;;6.35;0.65;;;;;;;12.44;82.03;101033.09;5054714;28;20098;-83
2022/07/26 02:40:38;;;;;;;3.83;0.73;;;;;;;12.40;82.05;101027.25;5069450;28;20040;-83
2022/07/26 02:43:05;;;;;;;5.50;0.60;;;;;;;12.42;81.58;101035.06;5052455;28;20067;-83
2022/07/26 02:45:32;;;;;;;6.00;0.88;;;;;;;12.47;81.85;101035.44;5064153;28;20033;-83
2022/07/26 02:47:57;;;;;;;5.35;0.70;;;;;;;12.53;81.52;101036.72;5027969;28;20037;-83
2022/07/26 02:50:25;;;;;;;2.80;0.60;;;;;;;12.57;81.06;101038.09;5030381;28;20382;-83
2022/07/26 02:52:52;;;;;;;6.20;0.57;;;;;;;12.58;80.94;101033.63;5069796;28;20408;-83
2022/07/26 02:55:21;;;;;;;6.13;0.88;;;;;;;12.54;81.00;101033.06;5062283;28;20557;-83
2022/07/26 02:57:48;;;;;;;11.10;1.10;;;;;;;12.49;81.26;101040.63;5054510;28;20158;-83
2022/07/26 03:00:16;;;;;;;6.78;0.70;;;;;;;12.49;81.42;101036.16;5027118;28;20037;-83
2022/07/26 03:02:42;;;;;;;3.90;0.73;;;;;;;12.48;81.48;101036.28;5025875;28;20041;-83
2022/07/26 03:05:08;;;;;;;4.38;0.55;;;;;;;12.50;81.05;101035.16;5054249;28;20037;-83
2022/07/26 03:07:35;;;;;;;5.28;0.90;;;;;;;12.59;80.98;101040.59;5052695;28;20041;-82
2022/07/26 03:10:01;;;;;;;4.60;0.52;;;;;;;12.64;80.62;101043.66;5052383;28;20547;-83
2022/07/26 03:12:27;;;;;;;4.72;0.50;;;;;;;12.62;80.28;101041.16;5053167;28;20041;-83
2022/07/26 03:14:52;;;;;;;7.20;0.68;;;;;;;12.61;80.59;101043.97;5054542;28;20116;-83
2022/07/26 03:17:18;;;;;;;3.85;0.88;;;;;;;12.61;80.64;101038.66;5052089;28;20036;-83
2022/07/26 03:19:44;;;;;;;6.57;1.17;;;;;;;12.60;80.69;101032.50;5052258;28;20037;-83
2022/07/26 03:22:10;;;;;;;3.47;0.70;;;;;;;12.59;80.12;101032.66;5035620;28;20055;-83
2022/07/26 03:24:36;;;;;;;4.63;0.68;;;;;;;12.49;80.45;101033.50;5054488;28;20082;-83
2022/07/26 03:27:02;;;;;;;6.53;0.80;;;;;;;12.46;80.84;101032.94;5052339;28;20037;-83
2022/07/26 03:29:28;;;;;;;7.80;0.93;;;;;;;12.44;80.83;101045.53;5053074;28;20438;-83
2022/07/26 03:31:54;;;;;;;3.35;0.65;;;;;;;12.44;80.73;101056.13;5055068;28;20171;-83
2022/07/26 03:34:20;;;;;;;2.03;0.50;;;;;;;12.39;80.91;101075.94;5044699;28;20041;-83
2022/07/26 03:36:46;;;;;;;6.63;1.02;;;;;;;12.35;81.40;101071.06;5056633;28;20079;-83
2022/07/26 03:39:12;;;;;;;7.40;0.88;;;;;;;12.39;81.31;101070.63;5055223;28;20037;-83
2022/07/26 03:41:38;;;;;;;3.20;0.70;;;;;;;12.46;81.38;101072.72;5050229;28;20112;-82
2022/07/26 03:44:04;;;;;;;6.60;0.70;;;;;;;12.43;81.26;101065.03;5053794;28;20033;-83
2022/07/26 03:46:30;;;;;;;4.30;0.60;;;;;;;12.37;81.23;101059.34;5053392;28;20082;-82
2022/07/26 03:48:56;;;;;;;6.07;0.80;;;;;;;12.26;81.61;101051.53;5049960;28;20037;-83
2022/07/26 03:51:22;;;;;;;5.57;0.93;;;;;;;12.20;81.68;101050.25;5053391;28;20052;-82
2022/07/26 03:53:48;;;;;;;4.45;0.93;;;;;;;12.24;81.74;101048.19;5050759;28;20088;-83
2022/07/26 03:56:33;;;;;;;4.90;0.70;;;;;;;12.26;81.65;101054.19;5051551;28;20388;-77
2022/07/26 03:59:02;;;;;;;5.97;0.85;;;;;;;12.24;81.75;101046.38;5053984;28;20060;-77
2022/07/26 04:01:29;;;;;;;7.57;1.00;;;;;;;12.24;81.84;101043.72;5078621;28;20105;-83
2022/07/26 04:03:55;;;;;;;3.67;0.68;;;;;;;12.22;81.84;101058.09;5048050;28;20029;-83
2022/07/26 04:06:20;;;;;;;2.25;0.60;;;;;;;12.19;81.98;101055.72;5068269;28;20047;-83
2022/07/26 04:08:46;;;;;;;2.40;0.50;;;;;;;12.25;82.10;101058.66;5049384;28;20033;-83
2022/07/26 04:11:13;;;;;;;5.00;0.70;;;;;;;12.31;82.06;101059.06;5050530;28;20053;-83
2022/07/26 04:13:38;;;;;;;4.07;0.57;;;;;;;12.35;81.87;101063.94;5052614;28;20070;-83
2022/07/26 04:16:05;;;;;;;6.07;1.15;;;;;;;12.47;81.63;101054.00;5049709;28;20100;-83
2022/07/26 04:18:31;;;;;;;6.60;0.90;;;;;;;12.56;81.34;101055.00;5051772;28;20115;-83
2022/07/26 04:20:57;;;;;;;2.67;0.60;;;;;;;12.64;81.13;101051.63;5051942;28;20029;-83
2022/07/26 04:23:23;;;;;;;1.42;0.40;;;;;;;12.72;80.72;101056.22;5047859;28;20029;-83
2022/07/26 04:25:48;;;;;;;9.82;0.80;;;;;;;12.75;80.52;101048.81;5051144;28;20036;-83
2022/07/26 04:28:14;;;;;;;1.67;0.70;;;;;;;12.76;80.47;101052.28;5049943;28;20036;-83
2022/07/26 04:30:40;;;;;;;5.65;0.80;;;;;;;12.70;80.34;101053.69;5052335;28;20025;-83
2022/07/26 04:33:06;;;;;;;5.38;0.80;;;;;;;12.59;80.65;101056.50;5050748;28;20398;-83
2022/07/26 04:35:32;;;;;;;7.63;0.90;;;;;;;12.51;80.76;101054.56;5045434;28;20080;-83
2022/07/26 04:37:59;;;;;;;7.68;0.70;;;;;;;12.46;81.56;101064.75;5057874;28;20104;-83
2022/07/26 04:40:27;;;;;;;6.10;0.60;;;;;;;12.44;81.41;101064.09;5052058;28;20024;-83
2022/07/26 04:42:53;;;;;;;4.13;0.70;;;;;;;12.42;81.46;101063.38;5047111;28;20029;-83
2022/07/26 04:45:20;;;;;;;2.95;0.70;;;;;;;12.43;81.73;101062.41;5049453;28;20037;-83
2022/07/26 04:47:49;;;;;;;4.82;0.80;;;;;;;12.39;81.55;101070.63;5062438;28;20029;-83
2022/07/26 04:50:15;;;;;;;4.10;0.88;;;;;;;12.40;81.75;101056.41;5052056;28;20124;-83
2022/07/26 04:52:41;;;;;;;5.63;0.80;;;;;;;12.42;81.72;101055.44;5032281;28;20120;-83
2022/07/26 04:55:08;;;;;;;4.70;0.80;;;;;;;12.46;81.76;101064.75;5052410;28;20179;-83
2022/07/26 04:57:34;;;;;;;6.05;0.80;;;;;;;12.47;81.62;101059.31;5050746;28;20087;-83
2022/07/26 05:00:01;;;;;;;1.90;0.73;;;;;;;12.49;81.66;101057.38;5040010;28;20037;-83
2022/07/26 05:02:27;;;;;;;5.32;0.85;;;;;;;12.55;81.37;101055.13;5063216;28;20045;-83
2022/07/26 05:04:53;;;;;;;4.13;0.88;;;;;;;12.60;81.08;101052.88;5049238;28;20032;-83
2022/07/26 05:07:19;;;;;;;4.03;1.00;;;;;;;12.65;80.82;101045.34;5051999;28;20402;-83
2022/07/26 05:09:45;;;;;;;5.68;0.75;;;;;;;12.67;80.80;101051.34;5080424;28;20037;-83
2022/07/26 05:12:11;;;;;;;4.65;0.90;;;;;;;12.64;80.77;101043.66;5046794;28;20039;-83
2022/07/26 05:14:36;;;;;;;6.28;1.38;;;;;;;12.67;81.10;101056.63;5051066;28;20079;-83
2022/07/26 05:17:03;;;;;;;1.85;0.65;;;;;;;12.70;80.62;101052.84;5074810;28;20055;-83
2022/07/26 05:19:29;;;;;;;2.42;0.60;;;;;;;12.73;80.69;101061.38;5041489;28;20068;-83
2022/07/26 05:21:55;;;;;;;1.08;0.57;;;;;;;12.76;80.60;101058.44;5045872;28;20104;-83
2022/07/26 05:24:20;;;;;;;2.88;0.65;;;;;;;12.80;80.82;101069.59;5048569;28;20037;-83
2022/07/26 05:26:46;;;;;;;6.95;0.82;;;;;;;12.84;80.64;101070.13;5058833;28;20474;-78
2022/07/26 05:29:12;;;;;;;4.90;0.73;;;;;;;12.84;80.28;101070.97;5049860;28;20033;-77
2022/07/26 05:31:38;;;;;;;5.28;1.60;;;;;;;12.81;80.80;101073.06;5051138;28;20044;-83
2022/07/26 05:34:04;;;;;;;8.68;0.95;;;;;;;12.81;80.80;101073.91;5045527;28;20405;-83
2022/07/26 05:36:29;;;;;;;3.03;0.60;;;;;;;12.78;80.40;101077.69;5055032;28;20028;-83
2022/07/26 05:38:55;;;;;;;3.80;0.80;;;;;;;12.73;80.62;101074.63;5051520;28;20033;-83
2022/07/26 05:41:21;;;;;;;1.90;0.73;;;;;;;12.75;80.94;101078.00;5046300;28;20125;-83
2022/07/26 05:43:47;;;;;;;3.58;0.90;;;;;;;12.78;80.66;101076.84;5049367;28;20040;-83
2022/07/26 05:46:14;;;;;;;5.45;1.23;;;;;;;12.80;80.74;101087.31;5083088;28;20033;-83
2022/07/26 05:48:41;;;;;;;2.50;0.60;;;;;;;12.84;80.50;101081.59;5051561;28;20028;-83
2022/07/26 05:51:09;;;;;;;6.07;0.60;;;;;;;12.90;80.78;101085.47;5051041;28;20028;-83
2022/07/26 05:53:35;;;;;;;5.50;0.70;;;;;;;12.94;80.48;101088.69;5032418;28;20178;-83
2022/07/26 05:56:01;;;;;;;5.10;0.77;;;;;;;12.98;80.18;101093.56;5051406;28;20021;-82
2022/07/26 05:58:27;;;;;;;5.53;0.70;;;;;;;13.00;80.27;101093.41;5051151;28;20386;-83
2022/07/26 06:00:52;;;;;;;3.78;0.68;;;;;;;13.05;79.94;101098.28;5050591;28;20447;-82
2022/07/26 06:03:21;;;;;;;4.60;1.08;;;;;;;13.02;80.08;101094.09;5049105;28;20339;-82
2022/07/26 06:05:49;;;;;;;8.80;1.00;;;;;;;13.01;80.44;101100.41;5049380;28;20021;-83
2022/07/26 06:08:15;;;;;;;5.35;1.10;;;;;;;12.99;80.12;101100.56;5051442;28;20029;-82
2022/07/26 06:10:41;;;;;;;4.97;1.02;;;;;;;12.95;80.33;101108.94;5050291;28;20033;-83
2022/07/26 06:13:07;;;;;;;7.95;2.00;;;;;;;12.90;80.99;101110.19;5048476;28;20025;-83
2022/07/26 06:15:33;;;;;;;13.25;1.20;;;;;;;12.81;81.17;101107.56;5050980;28;20041;-83
2022/07/26 06:17:58;;;;;;;5.40;0.98;;;;;;;12.75;81.51;101104.50;5049121;28;20493;-83
2022/07/26 06:20:24;;;;;;;2.47;0.70;;;;;;;12.69;81.90;101110.41;5051069;28;20390;-83
2022/07/26 06:22:51;;;;;;;3.45;1.02;;;;;;;12.70;82.08;101113.84;5049881;28;20041;-82
2022/07/26 06:25:17;;;;;;;3.95;0.88;;;;;;;12.67;81.87;101116.78;5045937;28;20094;-83
2022/07/26 06:27:42;;;;;;;2.40;0.70;;;;;;;12.56;82.77;101125.75;5049767;28;20029;-83
2022/07/26 06:30:09;;;;;;;2.67;0.80;;;;;;;12.42;83.21;101122.56;5052081;28;20505;-83
2022/07/26 06:32:35;;;;;;;2.08;0.73;;;;;;;12.37;83.46;101127.44;5066479;28;20431;-83
2022/07/26 06:35:01;;;;;;;5.13;1.20;;;;;;;12.31;84.11;101128.00;5044856;28;20044;-83
2022/07/26 06:37:27;;;;;;;3.92;0.98;;;;;;;12.30;84.35;101131.59;5051871;28;20486;-83
2022/07/26 06:39:52;;;;;;;5.32;1.13;;;;;;;12.29;84.08;101144.03;5050698;28;20444;-82
2022/07/26 06:42:18;;;;;;;5.68;1.65;;;;;;;12.28;84.89;101139.69;5049727;28;20029;-83
2022/07/26 06:44:44;;;;;;;4.40;0.77;;;;;;;12.32;85.00;101141.09;5045224;28;20055;-83
2022/07/26 06:47:10;;;;;;;3.85;1.20;;;;;;;12.32;85.04;101141.09;5045304;28;20566;-83
2022/07/26 06:49:36;;;;;;;7.15;0.75;;;;;;;12.39;85.22;101152.81;5049643;28;20094;-82
2022/07/26 06:52:02;;;;;;;4.25;0.70;;;;;;;12.39;85.09;101139.56;5049360;28;20049;-82
2022/07/26 06:54:28;;;;;;;13.57;1.17;;;;;;;12.40;85.15;101151.84;5047051;28;20431;-83
2022/07/26 06:56:54;;;;;;;5.63;1.20;;;;;;;12.43;85.65;101153.38;5051068;28;20385;-83
2022/07/26 06:59:19;;;;;;;6.13;0.90;;;;;;;12.48;85.47;101159.13;5050415;28;20033;-83
2022/07/26 07:01:46;;;;;;;5.45;0.95;;;;;;;12.51;85.56;101155.34;5048287;28;20036;-83
2022/07/26 07:04:11;;;;;;;4.97;0.80;;;;;;;12.55;85.67;101155.91;5048403;28;20440;-83
2022/07/26 07:06:37;;;;;;;6.65;0.90;;;;;;;12.57;85.84;101159.22;5049876;28;20033;-83
2022/07/26 07:09:03;;;;;;;4.88;1.20;;;;;;;12.53;86.32;101159.50;5048666;28;20503;-83
2022/07/26 07:11:29;;;;;;;6.88;0.80;;;;;;;12.58;85.82;101158.28;5057073;28;20397;-83
2022/07/26 07:13:55;;;;;;;7.28;0.93;;;;;;;12.60;86.26;101166.91;5052253;28;20051;-83
2022/07/26 07:16:21;;;;;;;4.57;0.80;;;;;;;12.59;86.00;101168.75;5045502;28;20375;-83
2022/07/26 07:18:47;;;;;;;5.22;0.63;;;;;;;12.61;86.15;101171.25;5050608;28;20033;-83
2022/07/26 07:21:13;;;;;;;2.90;0.80;;;;;;;12.71;85.79;101173.91;5034451;28;20321;-82
2022/07/26 07:23:39;;;;;;;3.15;0.80;;;;;;;12.73;85.80;101169.28;5053672;28;20036;-83
2022/07/26 07:26:05;;;;;;;6.07;0.57;;;;;;;12.80;85.60;101177.53;5084844;28;20504;-82
2022/07/26 07:28:32;;;;;;;2.55;0.90;;;;;;;12.83;85.65;101185.19;5051824;28;20036;-83
2022/07/26 07:30:58;;;;;;;5.72;1.15;;;;;;;12.84;85.26;101177.09;5051013;28;20040;-83
2022/07/26 07:33:24;;;;;;;3.55;1.27;;;;;;;12.70;85.40;101175.72;5053730;28;20033;-83
2022/07/26 07:35:51;;;;;;;3.45;0.70;;;;;;;12.62;85.60;101178.22;5068138;28;20428;-83
2022/07/26 07:38:17;;;;;;;7.90;1.10;;;;;;;12.55;85.97;101182.41;5038292;28;20041;-83
2022/07/26 07:40:42;;;;;;;11.82;1.02;;;;;;;12.50;86.24;101186.31;5053434;28;20044;-82
2022/07/26 07:43:08;;;;;;;7.65;1.08;;;;;;;12.53;87.12;101191.31;5047207;28;20037;-83
2022/07/26 07:45:34;;;;;;;4.82;1.00;;;;;;;12.56;87.63;101192.88;5052848;28;20041;-82
2022/07/26 07:48:00;;;;;;;5.07;0.93;;;;;;;12.58;87.81;101190.09;5049675;28;20114;-83
2022/07/26 07:50:26;;;;;;;4.88;1.00;;;;;;;12.55;88.29;101200.97;5049273;28;20032;-77
2022/07/26 07:52:52;;;;;;;4.78;0.90;;;;;;;12.48;88.71;101196.22;5052098;28;20120;-77
2022/07/26 07:55:18;;;;;;;7.10;0.82;;;;;;;12.58;88.30;101192.75;5050588;28;20107;-82
2022/07/26 07:57:44;;;;;;;5.10;0.80;;;;;;;12.66;88.11;101187.59;5049490;28;20111;-82
2022/07/26 08:00:11;;;;;;;4.03;0.60;;;;;;;12.65;87.42;101188.53;5050692;28;20389;-82
2022/07/26 08:02:37;;;;;;;4.10;0.80;;;;;;;12.63;87.12;101196.66;5052174;28;20431;-77
2022/07/26 08:05:06;;;;;;;10.98;1.00;;;;;;;12.71;86.91;101197.78;5049952;28;20041;-78
2022/07/26 08:07:32;;;;;;;4.47;1.00;;;;;;;12.82;86.63;101194.16;5053705;28;20033;-82
2022/07/26 08:09:58;;;;;;;5.70;0.93;;;;;;;12.84;86.35;101203.63;5046875;28;20366;-83
2022/07/26 08:12:24;;;;;;;10.05;2.00;;;;;;;12.85;86.05;101196.50;5051348;28;20032;-82
2022/07/26 08:14:50;;;;;;;3.72;1.25;;;;;;;12.86;85.95;101200.84;5042711;28;20108;-83
2022/07/26 08:17:15;;;;;;;6.22;0.85;;;;;;;12.87;85.75;101192.72;5043199;28;20458;-82
2022/07/26 08:19:42;;;;;;;2.53;0.90;;;;;;;12.95;85.74;101199.97;5049563;28;20033;-83
2022/07/26 08:22:08;;;;;;;2.80;0.80;;;;;;;13.06;85.52;101195.50;5047151;28;20453;-82
2022/07/26 08:24:34;;;;;;;2.63;0.88;;;;;;;13.09;84.74;101196.03;5052381;28;20059;-82
2022/07/26 08:27:00;;;;;;;5.78;0.70;;;;;;;13.25;85.12;101195.47;5052072;28;20394;-82
2022/07/26 08:29:26;;;;;;;5.53;0.80;;;;;;;13.36;84.10;101185.66;5050727;28;20040;-82
2022/07/26 08:31:51;;;;;;;3.92;0.68;;;;;;;13.50;83.73;101193.19;5054275;28;20037;-83
2022/07/26 08:34:20;;;;;;;3.15;0.63;;;;;;;13.52;82.46;101190.41;5047517;28;20080;-82
2022/07/26 08:36:46;;;;;;;4.88;0.70;;;;;;;13.60;82.16;101187.00;5047559;28;20481;-82
2022/07/26 08:39:12;;;;;;;3.33;0.63;;;;;;;13.83;81.51;101186.63;5035056;28;20043;-82
2022/07/26 08:41:41;;;;;;;3.83;1.23;;;;;;;14.06;81.20;101186.22;5052557;28;20029;-82
2022/07/26 08:44:09;;;;;;;5.25;1.05;;;;;;;14.15;79.24;101190.66;5051900;28;20032;-82
2022/07/26 08:46:36;;;;;;;2.40;0.47;;;;;;;14.08;78.17;101185.09;5079061;28;20147;-82
2022/07/26 08:49:05;;;;;;;4.45;0.80;;;;;;;13.98;77.25;101185.13;5053208;28;20045;-82
2022/07/26 08:51:32;;;;;;;3.03;0.68;;;;;;;13.99;77.30;101188.63;5053150;28;20037;-82
2022/07/26 08:54:00;;;;;;;3.10;0.68;;;;;;;14.07;77.17;101180.75;5052134;28;20029;-82
2022/07/26 08:56:26;;;;;;;6.65;0.65;;;;;;;14.06;75.74;101187.06;5083994;28;20029;-82
2022/07/26 08:58:52;;;;;;;2.00;0.50;;;;;;;14.19;75.55;101185.88;5047026;28;20029;-82
2022/07/26 09:01:18;;;;;;;6.28;0.85;;;;;;;14.30;74.81;101184.81;5048752;28;20457;-82
2022/07/26 09:03:44;;;;;;;2.65;0.20;;;;;;;14.48;74.85;101184.81;5058133;28;20025;-82
2022/07/26 09:06:21;;;;;;;3.30;0.40;;;;;;;14.60;73.95;101188.94;5050189;28;20096;-82
2022/07/26 09:08:49;;;;;;;3.17;0.50;;;;;;;14.71;73.16;101192.34;5052692;28;20083;-82
2022/07/26 09:11:24;;;;;;;2.92;0.47;;;;;;;14.74;72.69;101194.69;5053539;28;20057;-82
2022/07/26 09:13:55;;;;;;;1.88;0.30;;;;;;;14.80;71.39;101182.63;5048773;28;20040;-82
2022/07/26 09:16:21;;;;;;;4.28;0.43;;;;;;;14.74;71.11;101195.53;5078567;28;20020;-82
2022/07/26 09:18:47;;;;;;;1.48;0.38;;;;;;;14.70;70.26;101186.16;5052466;28;20033;-82
2022/07/26 09:21:34;;;;;;;3.38;0.40;;;;;;;14.58;69.97;101184.75;5051506;28;20036;-82
2022/07/26 09:24:01;;;;;;;2.65;0.32;;;;;;;14.67;70.66;101188.31;5048591;28;20032;-83
2022/07/26 09:26:27;;;;;;;3.55;0.50;;;;;;;14.63;69.92;101191.28;5048687;28;20033;-82
2022/07/26 09:29:10;;;;;;;2.72;0.30;;;;;;;14.60;68.71;101194.25;5051605;28;20032;-83
2022/07/26 09:31:38;;;;;;;3.80;0.40;;;;;;;14.53;69.90;101201.16;5041371;28;20041;-82
2022/07/26 09:34:05;;;;;;;5.18;0.63;;;;;;;14.54;69.69;101197.50;5049403;28;20051;-82
2022/07/26 09:36:31;;;;;;;3.35;0.50;;;;;;;14.51;69.36;101196.00;5055200;28;20038;-83
2022/07/26 09:39:01;;;;;;;4.07;0.57;;;;;;;14.63;69.43;101201.09;5045942;28;20059;-82
2022/07/26 09:41:30;;;;;;;2.40;0.50;;;;;;;14.73;68.99;101206.34;5050469;28;20064;-82
2022/07/26 09:43:59;;;;;;;3.20;0.50;;;;;;;14.81;67.77;101197.63;5049015;28;20078;-82
2022/07/26 09:46:29;;;;;;;5.05;0.75;;;;;;;14.89;66.44;101200.34;5045934;28;20485;-82
2022/07/26 09:48:56;;;;;;;2.85;0.40;;;;;;;15.04;65.83;101197.94;5049923;28;20037;-82
2022/07/26 09:51:43;;;;;;;1.45;0.35;;;;;;;15.09;63.97;101208.13;5052358;28;20043;-82
2022/07/26 09:54:10;;;;;;;1.77;0.35;;;;;;;15.17;63.54;101210.84;5049325;28;20064;-82
2022/07/26 09:56:50;;;;;;;2.53;0.40;;;;;;;15.14;62.01;101205.84;5042751;28;20052;-82
2022/07/26 09:59:19;;;;;;;2.47;0.35;;;;;;;15.23;62.07;101204.91;5041241;28;20123;-82
2022/07/26 10:01:46;;;;;;;4.28;0.32;;;;;;;15.21;61.79;101211.38;5052390;28;20036;-83
2022/07/26 10:04:12;;;;;;;4.43;0.60;;;;;;;15.11;62.11;101206.16;5048791;28;20040;-83
2022/07/26 10:06:39;;;;;;;3.03;0.30;;;;;;;15.08;62.05;101203.81;5040444;28;20029;-83
2022/07/26 10:09:06;;;;;;;2.70;0.50;;;;;;;15.15;61.87;101210.16;5050507;28;20037;-82
2022/07/26 10:11:44;;;;;;;1.48;0.47;;;;;;;15.05;59.59;101207.59;5046528;28;20033;-83
2022/07/26 10:14:32;;;;;;;3.10;0.95;;;;;;;15.03;60.46;101203.44;5047609;28;20065;-83
2022/07/26 10:17:30;;;;;;;2.05;0.30;;;;;;;14.96;57.61;101204.06;5049227;28;20072;-82
2022/07/26 10:20:01;;;;;;;6.03;0.45;;;;;;;14.97;59.72;101210.22;5046740;28;20114;-73
2022/07/26 10:22:30;;;;;;;1.85;0.50;;;;;;;14.91;60.29;101209.00;5042057;28;20033;-77
2022/07/26 10:25:16;;;;;;;3.47;0.55;;;;;;;14.80;59.14;101201.25;5045730;28;20482;-77
2022/07/26 10:27:48;;;;;;;3.63;0.50;;;;;;;14.70;60.60;101209.31;5053324;28;20443;-82
2022/07/26 10:30:22;;;;;;;2.65;0.30;;;;;;;14.76;60.75;101206.84;5050859;28;20537;-83
2022/07/26 10:33:14;;;;;;;2.50;0.40;;;;;;;14.85;59.93;101201.63;5048659;28;20033;-82
2022/07/26 10:35:42;;;;;;;3.83;0.63;;;;;;;14.92;60.85;101201.84;5050640;28;20478;-82
2022/07/26 10:38:24;;;;;;;1.08;0.40;;;;;;;15.00;60.70;101204.59;5047606;28;20031;-82
2022/07/26 10:41:02;;;;;;;1.33;0.30;;;;;;;14.98;61.34;101202.06;5048200;28;20039;-82
2022/07/26 10:43:29;;;;;;;3.00;0.47;;;;;;;15.00;61.74;101202.75;5039697;28;20038;-82
2022/07/26 10:46:16;;;;;;;4.32;0.68;;;;;;;14.91;60.99;101210.84;5048387;28;20098;-82
2022/07/26 10:49:05;;;;;;;2.50;0.65;;;;;;;14.78;61.08;101205.88;5054521;28;20143;-82
2022/07/26 10:51:34;;;;;;;2.83;0.52;;;;;;;14.81;62.19;101218.91;5065879;28;20116;-82
2022/07/26 10:54:08;;;;;;;2.63;0.50;;;;;;;14.70;62.90;101206.63;5052649;28;20032;-82
2022/07/26 10:56:34;;;;;;;3.13;1.08;;;;;;;14.43;63.99;101219.03;5068271;28;20044;-77
2022/07/26 10:59:01;;;;;;;1.70;0.47;;;;;;;14.22;64.55;101228.94;5083857;28;20103;-77
2022/07/26 11:01:39;;;;;;;4.32;0.60;;;;;;;14.08;64.15;101221.47;5049013;28;20063;-82
2022/07/26 11:04:16;;;;;;;5.28;0.68;;;;;;;14.12;64.59;101225.50;5054142;28;20058;-82
2022/07/26 11:06:44;;;;;;;0.95;0.50;;;;;;;14.12;64.23;101226.34;5057740;28;20064;-82
2022/07/26 11:09:11;;;;;;;3.63;0.50;;;;;;;14.16;64.23;101215.41;5055346;28;20087;-82
2022/07/26 11:11:37;;;;;;;1.98;0.28;;;;;;;14.33;63.95;101229.72;5030052;28;20086;-82
2022/07/26 11:14:13;;;;;;;3.97;0.30;;;;;;;14.55;62.91;101233.78;5056250;28;20091;-82
2022/07/26 11:16:42;;;;;;;0.93;0.32;;;;;;;14.65;61.43;101228.38;5050600;28;20082;-82
2022/07/26 11:19:28;;;;;;;1.48;0.30;;;;;;;14.84;61.15;101229.25;5031635;28;20036;-82
2022/07/26 11:21:58;;;;;;;1.95;0.45;;;;;;;15.07;60.93;101229.59;5065225;28;20123;-82
2022/07/26 11:24:25;;;;;;;1.52;0.40;;;;;;;15.31;61.03;101232.56;5051916;28;20040;-82
2022/07/26 11:26:51;;;;;;;1.95;0.50;;;;;;;15.41;60.14;101230.66;5038294;28;20113;-82